Time;durP1;ratioP1;P1;durP2;ratioP2;P2;SDS_P1;SDS_P2;PMS_P1;PMS_P2;Temp;Humidity;BMP_temperature;BMP_pressure;BME280_temperature;BME280_humidity;BME280_pressure;Samples;Min_cycle;Max_cycle;Signal;HPM_P1;HPM_P2
2021/11/19 00:01:50;;;;;;;34.38;15.90;;;;;;;1.77;70.79;99275.41;5029946;28;20083;-80
2021/11/19 00:04:17;;;;;;;35.47;16.55;;;;;;;1.89;71.17;99292.72;5039844;28;20103;-80
2021/11/19 00:06:43;;;;;;;35.35;15.90;;;;;;;1.82;70.78;99280.66;5021841;28;20144;-78
2021/11/19 00:09:10;;;;;;;32.13;15.18;;;;;;;1.91;70.71;99286.81;5013904;28;20453;-79
2021/11/19 00:11:39;;;;;;;35.08;15.90;;;;;;;1.68;71.01;99242.75;5039521;28;20042;-80
2021/11/19 00:14:08;;;;;;;33.72;15.77;;;;;;;1.68;71.08;99229.94;5038707;28;20036;-81
2021/11/19 00:16:36;;;;;;;33.47;16.15;;;;;;;1.98;71.12;99290.34;5037907;28;20049;-80
2021/11/19 00:19:03;;;;;;;34.80;15.45;;;;;;;2.01;70.76;99277.56;5020893;28;20037;-78
2021/11/19 00:21:31;;;;;;;34.20;16.23;;;;;;;1.84;71.10;99256.72;5026372;28;20074;-79
2021/11/19 00:23:57;;;;;;;36.55;15.82;;;;;;;1.98;71.07;99269.81;5024226;28;20472;-80
2021/11/19 00:26:25;;;;;;;32.85;16.35;;;;;;;1.85;70.95;99239.66;5022807;28;20133;-78
2021/11/19 00:28:51;;;;;;;37.38;16.35;;;;;;;1.67;70.86;99209.41;5025166;28;20607;-79
2021/11/19 00:31:18;;;;;;;33.72;16.73;;;;;;;1.91;70.78;99247.44;5044414;28;20037;-79
2021/11/19 00:33:45;;;;;;;38.83;16.75;;;;;;;1.97;71.13;99255.25;5052163;28;20044;-79
2021/11/19 00:36:18;;;;;;;36.03;15.95;;;;;;;2.00;71.28;99255.31;5025727;28;20361;-80
2021/11/19 00:38:46;;;;;;;34.28;15.65;;;;;;;1.80;71.14;99219.91;5009876;28;20397;-78
2021/11/19 00:41:13;;;;;;;37.13;16.48;;;;;;;2.01;70.77;99256.16;5015257;28;20051;-80
2021/11/19 00:43:40;;;;;;;37.00;16.88;;;;;;;1.79;71.06;99214.72;5022620;28;20049;-79
2021/11/19 00:46:07;;;;;;;35.90;17.75;;;;;;;1.93;71.08;99236.38;5027286;28;20037;-79
2021/11/19 00:48:35;;;;;;;38.33;16.58;;;;;;;2.00;70.83;99245.03;4990717;28;20061;-77
2021/11/19 00:51:16;;;;;;;36.42;15.88;;;;;;;2.00;71.06;99245.03;5039931;28;20131;-79
2021/11/19 00:53:45;;;;;;;33.40;15.93;;;;;;;2.02;70.90;99242.47;5030381;28;20043;-78
2021/11/19 00:56:14;;;;;;;36.08;16.98;;;;;;;1.85;70.96;99211.44;5007850;28;20041;-77
2021/11/19 00:58:40;;;;;;;34.70;15.35;;;;;;;1.85;71.32;99211.44;5023804;28;20029;-76
2021/11/19 01:01:25;;;;;;;36.88;16.27;;;;;;;1.91;71.36;99208.94;5043972;28;20056;-78
2021/11/19 01:03:52;;;;;;;33.80;15.45;;;;;;;2.06;71.13;99234.88;5014732;28;20045;-78
2021/11/19 01:06:18;;;;;;;36.92;15.80;;;;;;;1.93;71.08;99204.69;5026843;28;20049;-77
2021/11/19 01:08:52;;;;;;;31.42;15.18;;;;;;;2.03;70.89;99226.25;5013854;28;20574;-78
2021/11/19 01:11:22;;;;;;;34.50;15.40;;;;;;;1.98;70.88;99220.19;5024829;28;20051;-78
2021/11/19 01:13:51;;;;;;;35.97;16.05;;;;;;;1.84;70.86;99210.56;5013705;28;20037;-79
2021/11/19 01:16:34;;;;;;;33.55;14.48;;;;;;;1.86;71.14;99187.50;5036605;28;20428;-76
2021/11/19 01:19:08;;;;;;;31.48;15.52;;;;;;;2.02;70.78;99220.25;5037966;28;20044;-80
2021/11/19 01:21:40;;;;;;;35.45;15.18;;;;;;;2.00;71.29;99205.66;5027918;28;20459;-79
2021/11/19 01:24:07;;;;;;;32.20;15.13;;;;;;;2.05;71.12;99210.06;5042915;28;20059;-82
2021/11/19 01:26:36;;;;;;;32.42;14.70;;;;;;;2.02;71.28;99215.13;5020699;28;20049;-79
2021/11/19 01:29:14;;;;;;;33.58;15.45;;;;;;;2.06;71.13;99216.91;5019773;28;20033;-79
2021/11/19 01:31:58;;;;;;;32.67;14.23;;;;;;;1.88;71.33;99183.22;5007781;28;20044;-80
2021/11/19 01:34:43;;;;;;;36.17;15.15;;;;;;;2.01;71.17;99204.81;5039272;28;20045;-78
2021/11/19 01:37:35;;;;;;;32.25;14.45;;;;;;;2.05;71.36;99214.31;5018834;28;20127;-80
2021/11/19 01:40:34;;;;;;;36.33;15.38;;;;;;;1.90;71.58;99181.56;4994510;28;20140;-79
2021/11/19 01:43:04;;;;;;;;;;;;;;;2.14;71.30;99211.91;5023685;28;20094;-78
2021/11/19 01:45:58;;;;;;;35.47;15.18;;;;;;;2.10;70.97;99210.97;5019376;28;20011;-77
2021/11/19 01:48:31;;;;;;;33.25;14.82;;;;;;;2.09;71.36;99210.97;5005686;28;20060;-79
2021/11/19 01:51:02;;;;;;;29.85;14.23;;;;;;;2.06;71.29;99219.47;5007081;28;20500;-80
2021/11/19 01:53:41;;;;;;;33.97;14.77;;;;;;;1.87;71.34;99184.94;5043101;28;20042;-78
2021/11/19 01:56:24;;;;;;;34.83;15.48;;;;;;;1.91;71.13;99191.84;5007640;28;20284;-81
2021/11/19 01:58:58;;;;;;;29.50;13.75;;;;;;;1.88;71.70;99190.94;5022451;28;20045;-80
2021/11/19 02:01:30;;;;;;;34.60;16.00;;;;;;;1.98;71.23;99204.81;5023465;28;20132;-79
2021/11/19 02:03:57;;;;;;;;;;;;;;;2.05;71.51;99206.59;5008663;28;20061;-79
2021/11/19 02:06:28;;;;;;;37.05;14.98;;;;;;;1.87;71.27;99178.97;5023470;28;19965;-78
2021/11/19 02:09:07;;;;;;;33.13;14.02;;;;;;;2.10;71.64;99208.41;5031796;28;20033;-79
2021/11/19 02:11:42;;;;;;;31.88;14.57;;;;;;;2.15;71.82;99203.38;5000385;28;20055;-78
2021/11/19 02:14:32;;;;;;;30.67;14.07;;;;;;;2.19;71.91;99206.81;5007613;28;20105;-77
2021/11/19 02:17:00;;;;;;;35.65;15.40;;;;;;;2.14;71.24;99195.63;5037415;28;20041;-79
2021/11/19 02:19:41;;;;;;;30.33;14.27;;;;;;;2.06;71.76;99180.97;5009369;28;20095;-78
2021/11/19 02:22:19;;;;;;;28.50;13.63;;;;;;;2.14;71.75;99185.34;5013103;28;20052;-79
2021/11/19 02:24:50;;;;;;;28.60;14.23;;;;;;;2.03;71.36;99160.41;5003450;28;20052;-79
2021/11/19 02:27:32;;;;;;;34.10;14.40;;;;;;;2.10;71.26;99177.59;5009038;28;20061;-77
2021/11/19 02:30:03;;;;;;;33.72;14.07;;;;;;;2.16;71.47;99178.53;5009236;28;20043;-81
2021/11/19 02:32:38;;;;;;;34.97;15.05;;;;;;;2.33;71.33;99196.78;5019326;28;20053;-79
2021/11/19 02:35:07;;;;;;;36.03;14.40;;;;;;;2.35;71.52;99193.38;5019769;28;20036;-80
2021/11/19 02:37:37;;;;;;;34.28;14.63;;;;;;;2.10;71.31;99167.34;5019153;28;20059;-79
2021/11/19 02:40:14;;;;;;;35.72;14.82;;;;;;;2.29;71.79;99201.00;5010574;28;20069;-77
2021/11/19 02:42:49;;;;;;;32.92;14.77;;;;;;;2.21;71.46;99180.31;5008310;28;20048;-78
2021/11/19 02:45:23;;;;;;;33.67;14.30;;;;;;;2.17;71.32;99187.97;5034318;28;20037;-78
2021/11/19 02:47:55;;;;;;;33.20;14.52;;;;;;;2.28;71.27;99185.56;5025239;28;20107;-80
2021/11/19 02:50:23;;;;;;;31.10;13.65;;;;;;;2.11;71.51;99153.66;4987995;28;20561;-79
2021/11/19 02:52:52;;;;;;;30.30;13.82;;;;;;;2.27;71.77;99187.28;4994330;28;20041;-80
2021/11/19 02:55:23;;;;;;;29.35;13.38;;;;;;;2.27;71.25;99171.88;5008773;28;20095;-79
2021/11/19 02:57:53;;;;;;;30.33;14.23;;;;;;;2.26;71.21;99178.69;5022524;28;20091;-78
2021/11/19 03:00:24;;;;;;;28.98;13.75;;;;;;;2.15;72.14;99149.44;5036973;28;20052;-80
2021/11/19 03:02:50;;;;;;;32.63;14.10;;;;;;;2.39;71.52;99194.31;5009946;28;20041;-81
2021/11/19 03:05:20;;;;;;;32.35;14.20;;;;;;;2.40;71.45;99184.03;5027549;28;20131;-80
2021/11/19 03:07:46;;;;;;;31.45;14.10;;;;;;;2.30;71.65;99158.22;5037405;28;20518;-79
2021/11/19 03:10:21;;;;;;;32.65;14.52;;;;;;;2.44;71.66;99189.22;5023961;28;20037;-79
2021/11/19 03:12:49;;;;;;;31.17;13.63;;;;;;;2.38;71.36;99188.28;5024925;28;20626;-74
2021/11/19 03:15:20;;;;;;;27.23;12.82;;;;;;;2.31;71.10;99183.03;5038119;28;20542;-78
2021/11/19 03:17:47;;;;;;;31.40;12.63;;;;;;;2.29;71.58;99183.03;5047382;28;20067;-79
2021/11/19 03:20:15;;;;;;;31.30;13.73;;;;;;;2.18;71.32;99164.91;5025024;28;20849;-80
2021/11/19 03:22:42;;;;;;;30.70;13.32;;;;;;;2.36;71.81;99189.13;5016865;28;20036;-79
2021/11/19 03:25:12;;;;;;;31.02;13.48;;;;;;;2.37;71.36;99186.56;5022545;28;20049;-77
2021/11/19 03:27:40;;;;;;;32.70;13.57;;;;;;;2.39;71.88;99174.59;5040298;28;20365;-78
2021/11/19 03:30:18;;;;;;;24.25;11.63;;;;;;;2.36;71.28;99166.84;5022327;28;20603;-79
2021/11/19 03:32:45;;;;;;;29.70;14.43;;;;;;;2.41;71.89;99188.34;5026711;28;20111;-79
2021/11/19 03:35:14;;;;;;;30.77;13.70;;;;;;;2.44;72.16;99179.81;5005151;28;20045;-81
2021/11/19 03:37:46;;;;;;;33.25;13.73;;;;;;;2.46;71.39;99183.25;5026069;28;20412;-77
2021/11/19 03:40:19;;;;;;;30.25;13.02;;;;;;;2.41;71.52;99161.81;5040289;28;20118;-78
2021/11/19 03:42:46;;;;;;;30.20;13.23;;;;;;;2.46;71.46;99157.56;5038725;28;20068;-77
2021/11/19 03:45:15;;;;;;;31.17;14.02;;;;;;;2.57;72.02;99178.28;5022838;28;20075;-77
2021/11/19 03:47:44;;;;;;;29.80;12.98;;;;;;;2.40;71.33;99139.53;5031413;28;20091;-80
2021/11/19 03:50:36;;;;;;;31.15;13.88;;;;;;;2.18;70.86;99099.84;5039516;28;20061;-85
2021/11/19 03:53:04;;;;;;;28.23;13.32;;;;;;;2.43;71.51;99133.56;5018859;28;20041;-83
2021/11/19 03:55:36;;;;;;;28.90;12.73;;;;;;;1.92;71.34;99047.31;5019704;28;20033;-83
2021/11/19 03:58:04;;;;;;;28.77;13.15;;;;;;;2.60;71.63;99160.34;5016729;28;20048;-85
2021/11/19 04:00:36;;;;;;;28.27;12.40;;;;;;;2.10;71.32;99058.69;5025264;28;20041;-85
2021/11/19 04:03:04;;;;;;;26.73;12.55;;;;;;;2.66;71.54;99152.72;5028601;28;20592;-87
2021/11/19 04:05:35;;;;;;;29.20;13.18;;;;;;;2.63;71.01;99139.81;5010599;28;20045;-81
2021/11/19 04:08:02;;;;;;;27.73;12.98;;;;;;;2.48;71.16;99139.63;5002885;28;20033;-85
2021/11/19 04:10:34;;;;;;;28.67;13.73;;;;;;;2.61;72.02;99146.66;5001210;28;20344;-83
2021/11/19 04:13:00;;;;;;;29.05;12.25;;;;;;;2.62;71.29;99140.66;5028930;28;20053;-83
2021/11/19 04:15:32;;;;;;;29.85;13.18;;;;;;;2.59;71.64;99132.06;5024584;28;20032;-82
2021/11/19 04:17:59;;;;;;;27.70;12.88;;;;;;;1.63;71.05;98993.03;5041305;28;20152;-87
2021/11/19 04:20:26;;;;;;;30.35;13.25;;;;;;;2.26;71.48;99105.97;4997558;28;20128;-85
2021/11/19 04:22:53;;;;;;;27.95;12.50;;;;;;;2.41;71.73;99116.44;5017234;28;21917;-81
2021/11/19 04:25:22;;;;;;;30.25;13.25;;;;;;;2.61;71.51;99154.34;5057586;28;20037;-81
2021/11/19 04:27:51;;;;;;;;;;;;;;;2.60;71.67;99147.50;5026567;28;20047;-82
2021/11/19 04:30:43;;;;;;;29.70;12.35;;;;;;;2.52;71.41;99144.81;5041918;28;19921;-87
2021/11/19 04:33:14;;;;;;;31.17;13.02;;;;;;;2.63;71.47;99147.53;5021568;28;20039;-84
2021/11/19 04:35:40;;;;;;;27.80;11.85;;;;;;;2.01;71.17;99055.97;5053988;28;20037;-82
2021/11/19 04:38:09;;;;;;;29.38;12.85;;;;;;;2.17;71.84;99082.72;5042353;28;20075;-81
2021/11/19 04:40:37;;;;;;;28.33;12.32;;;;;;;1.97;70.99;99034.53;5016557;28;20041;-81
2021/11/19 04:43:06;;;;;;;30.88;13.48;;;;;;;2.44;71.57;99130.16;5008759;28;20144;-83
2021/11/19 04:45:35;;;;;;;;;;;;;;;2.58;71.67;99146.59;5053667;28;20049;-82
2021/11/19 04:48:01;;;;;;;33.33;12.85;;;;;;;2.56;71.27;99162.00;5040045;28;19921;-81
2021/11/19 04:50:35;;;;;;;33.88;13.07;;;;;;;2.34;71.21;99113.75;5031906;28;20085;-81
2021/11/19 04:53:01;;;;;;;30.48;12.40;;;;;;;2.00;71.27;99052.56;5021207;28;20052;-80
2021/11/19 04:55:28;;;;;;;35.15;13.25;;;;;;;2.30;71.15;99105.16;5027697;28;20036;-81
2021/11/19 04:57:55;;;;;;;30.08;12.07;;;;;;;2.59;71.30;99155.19;5028298;28;20045;-85
2021/11/19 05:00:29;;;;;;;28.83;12.40;;;;;;;2.43;71.52;99108.72;5011479;28;20041;-84
2021/11/19 05:03:22;;;;;;;31.60;13.88;;;;;;;2.66;71.57;99146.69;5022147;28;20049;-83
2021/11/19 05:05:50;;;;;;;28.25;12.40;;;;;;;2.68;71.47;99145.88;5026387;28;20067;-84
2021/11/19 05:08:16;;;;;;;32.20;12.35;;;;;;;2.14;71.40;99050.19;5025487;28;20049;-81
2021/11/19 05:10:44;;;;;;;25.13;11.80;;;;;;;2.49;71.44;99123.38;5028428;28;20500;-87
2021/11/19 05:13:13;;;;;;;28.30;12.35;;;;;;;2.29;71.27;99087.16;5019681;28;20488;-87
2021/11/19 05:15:47;;;;;;;33.10;13.18;;;;;;;2.64;71.11;99163.81;4997235;28;20061;-80
2021/11/19 05:18:14;;;;;;;34.78;13.05;;;;;;;2.07;71.54;99074.91;5040372;28;20042;-85
2021/11/19 05:20:40;;;;;;;28.48;12.20;;;;;;;2.65;71.67;99152.72;4997726;28;20037;-83
2021/11/19 05:23:07;;;;;;;30.02;13.02;;;;;;;2.67;71.28;99158.69;5018040;28;20113;-83
2021/11/19 05:25:43;;;;;;;29.85;12.88;;;;;;;2.49;71.39;99133.66;4997257;28;20037;-84
2021/11/19 05:28:11;;;;;;;27.45;12.68;;;;;;;2.40;71.37;99122.41;4999642;28;20045;-83
2021/11/19 05:30:39;;;;;;;28.35;12.98;;;;;;;2.70;71.66;99172.47;5030778;28;20038;-83
2021/11/19 05:33:09;;;;;;;29.75;12.48;;;;;;;2.26;71.62;99091.41;5016589;28;20056;-82
2021/11/19 05:35:36;;;;;;;29.88;12.55;;;;;;;2.69;71.35;99183.59;5049413;28;20116;-85
2021/11/19 05:38:03;;;;;;;30.45;12.27;;;;;;;2.63;71.51;99168.09;5014625;28;20052;-82
2021/11/19 05:40:29;;;;;;;29.85;12.93;;;;;;;2.74;71.77;99175.94;5016519;28;20038;-83
2021/11/19 05:42:56;;;;;;;37.90;13.43;;;;;;;2.51;70.95;99119.97;5032288;28;20054;-84
2021/11/19 05:45:27;;;;;;;30.42;12.10;;;;;;;2.71;71.88;99151.06;5030522;28;20041;-85
2021/11/19 05:48:07;;;;;;;29.65;12.50;;;;;;;2.81;71.49;99159.75;5017173;28;20061;-82
2021/11/19 05:50:39;;;;;;;31.17;12.98;;;;;;;2.77;71.57;99140.00;5028237;28;20119;-84
2021/11/19 05:53:09;;;;;;;30.48;12.60;;;;;;;2.91;71.74;99171.00;5033738;28;20133;-84
2021/11/19 05:55:40;;;;;;;30.50;12.57;;;;;;;2.94;71.50;99175.31;5028775;28;20037;-82
2021/11/19 05:58:07;;;;;;;31.65;12.45;;;;;;;2.88;70.96;99163.25;5026509;28;20113;-83
2021/11/19 06:00:49;;;;;;;30.40;13.15;;;;;;;2.10;71.37;99026.16;5023350;28;20115;-83
2021/11/19 06:03:25;;;;;;;30.58;14.10;;;;;;;2.85;71.36;99147.78;5015341;28;20033;-83
2021/11/19 06:06:09;;;;;;;27.23;11.75;;;;;;;2.57;71.34;99116.63;5025819;28;20045;-84
2021/11/19 06:08:57;;;;;;;33.20;13.20;;;;;;;2.94;71.63;99165.91;5024164;28;20371;-82
2021/11/19 06:11:29;;;;;;;28.02;12.02;;;;;;;2.92;71.52;99159.88;5024837;28;20069;-84
2021/11/19 06:14:06;;;;;;;32.00;12.82;;;;;;;2.90;71.32;99146.16;5025187;28;20132;-82
2021/11/19 06:16:36;;;;;;;27.88;12.00;;;;;;;3.00;71.20;99158.25;4992857;28;20497;-81
2021/11/19 06:19:09;;;;;;;26.52;12.15;;;;;;;3.05;71.93;99160.00;5005204;28;20064;-85
2021/11/19 06:21:43;;;;;;;29.27;12.07;;;;;;;2.79;71.29;99116.88;5025606;28;20141;-83
2021/11/19 06:24:14;;;;;;;28.45;12.25;;;;;;;3.10;71.81;99161.78;5033318;28;20042;-82
2021/11/19 06:26:42;;;;;;;27.85;12.07;;;;;;;3.01;72.18;99134.28;5027087;28;20041;-81
2021/11/19 06:29:09;;;;;;;30.52;12.32;;;;;;;3.12;71.05;99147.25;5017783;28;20030;-79
2021/11/19 06:32:19;;;;;;;30.40;13.02;;;;;;;2.75;71.11;99094.59;5024883;28;20037;-82
2021/11/19 06:34:45;;;;;;;29.48;11.77;;;;;;;3.13;71.33;99153.25;5018468;28;20085;-83
2021/11/19 06:37:12;;;;;;;28.40;12.13;;;;;;;2.82;71.33;99093.78;5003004;28;20038;-81
2021/11/19 06:40:19;;;;;;;28.80;11.35;;;;;;;2.58;71.44;99040.44;5033804;28;20042;-79
2021/11/19 06:46:05;;;;;;;24.40;11.68;;;;;;;2.84;71.25;99100.69;4958768;28;20043;-80
2021/11/19 06:49:10;;;;;;;27.17;11.32;;;;;;;2.64;71.62;99051.63;4953112;29;20035;-81
2021/11/19 06:52:04;;;;;;;26.38;12.18;;;;;;;2.85;71.37;99084.44;4966463;29;20134;-80
2021/11/19 06:54:51;;;;;;;28.52;12.27;;;;;;;2.50;71.26;99010.38;4963055;29;20058;-83
2021/11/19 06:57:44;;;;;;;;;;;;;;;3.38;71.29;99141.50;4955363;28;20095;-83
2021/11/19 07:00:20;;;;;;;29.70;12.70;;;;;;;2.86;71.05;99072.44;4970808;28;20382;-82
2021/11/19 07:02:47;;;;;;;32.40;11.38;;;;;;;3.35;70.98;99154.34;4973086;28;20110;-82
2021/11/19 07:05:27;;;;;;;28.45;11.95;;;;;;;2.89;71.05;99075.03;4957870;29;20115;-82
2021/11/19 07:07:53;;;;;;;28.92;13.57;;;;;;;3.37;71.35;99142.34;4948506;29;20039;-82
2021/11/19 07:10:26;;;;;;;30.58;11.90;;;;;;;3.42;71.12;99145.00;4956199;29;20045;-82
2021/11/19 07:12:56;;;;;;;29.23;11.82;;;;;;;2.94;71.88;99064.78;4953951;29;20050;-85
2021/11/19 07:15:30;;;;;;;27.63;12.23;;;;;;;2.97;70.69;99081.13;4934103;29;20046;-82
2021/11/19 07:17:57;;;;;;;24.17;11.63;;;;;;;2.75;71.12;99046.63;4975695;28;20035;-84
2021/11/19 07:20:27;;;;;;;26.95;10.98;;;;;;;3.08;71.74;99088.94;4950676;29;20024;-83
2021/11/19 07:23:00;;;;;;;26.85;11.50;;;;;;;3.16;70.91;99087.28;4909770;29;20053;-84
2021/11/19 07:25:32;;;;;;;29.63;12.45;;;;;;;2.94;71.04;99041.66;4944666;29;20062;-80
2021/11/19 07:28:06;;;;;;;30.23;13.15;;;;;;;3.38;70.62;99122.66;4956836;28;20039;-83
2021/11/19 07:30:49;;;;;;;26.88;12.50;;;;;;;3.22;71.16;99078.78;4959988;28;20185;-81
2021/11/19 07:33:43;;;;;;;25.77;11.32;;;;;;;3.63;70.55;99149.47;4952791;29;20123;-82
2021/11/19 07:36:48;;;;;;;25.27;12.32;;;;;;;3.44;70.29;99112.41;4934318;29;20523;-81
2021/11/19 07:39:20;;;;;;;27.70;11.52;;;;;;;3.41;70.74;99077.25;4946834;29;20264;-81
2021/11/19 07:42:08;;;;;;;26.27;11.80;;;;;;;3.65;71.38;99113.44;4947635;29;20051;-81
2021/11/19 07:44:52;;;;;;;23.02;10.52;;;;;;;3.50;71.11;99066.16;4970991;28;20122;-82
2021/11/19 07:47:39;;;;;;;25.58;11.50;;;;;;;3.81;70.64;99122.16;4975403;28;20046;-81
2021/11/19 07:50:21;;;;;;;25.73;11.65;;;;;;;3.42;70.05;99048.09;4964932;28;20034;-82
2021/11/19 07:52:54;;;;;;;23.63;10.63;;;;;;;3.20;70.88;99015.34;4967087;28;20503;-80
2021/11/19 07:55:23;;;;;;;28.48;11.05;;;;;;;2.99;70.27;98944.91;4969011;28;20050;-82
2021/11/19 07:57:50;;;;;;;24.90;10.45;;;;;;;3.64;70.17;99040.53;4974355;28;20047;-80
2021/11/19 08:00:26;;;;;;;25.13;12.48;;;;;;;3.87;70.60;99070.72;4942460;28;20062;-80
2021/11/19 08:03:03;;;;;;;28.70;11.40;;;;;;;3.07;70.18;98947.53;4958996;28;20062;-81
2021/11/19 08:05:31;;;;;;;28.48;11.25;;;;;;;3.66;70.34;99038.84;4964431;28;20050;-85
2021/11/19 08:08:28;;;;;;;22.75;10.93;;;;;;;3.63;70.20;99040.53;4960878;28;20054;-84
2021/11/19 08:11:12;;;;;;;23.90;10.65;;;;;;;3.66;70.16;99036.28;4957100;28;20042;-84
2021/11/19 08:13:45;;;;;;;25.05;10.93;;;;;;;3.88;69.75;99083.59;4980195;28;20047;-84
2021/11/19 08:16:15;;;;;;;26.83;11.15;;;;;;;3.35;70.07;98994.03;4951585;28;20074;-81
2021/11/19 08:19:27;;;;;;;26.15;11.30;;;;;;;4.14;69.77;99128.41;4946689;28;20114;-84
2021/11/19 08:21:58;;;;;;;24.20;12.13;;;;;;;4.14;70.13;99126.66;4943160;28;20067;-85
2021/11/19 08:24:29;;;;;;;22.60;10.77;;;;;;;3.48;69.87;99011.25;4973995;28;20093;-82
2021/11/19 08:27:20;;;;;;;24.10;10.02;;;;;;;4.10;69.46;99096.59;4980699;28;20073;-83
2021/11/19 08:30:09;;;;;;;23.35;9.88;;;;;;;3.36;69.92;98967.47;4967114;28;20054;-79
2021/11/19 08:33:01;;;;;;;26.73;11.23;;;;;;;3.82;69.88;99036.34;4970667;28;20093;-81
2021/11/19 08:35:29;;;;;;;19.95;9.85;;;;;;;4.19;69.99;99080.38;4987699;28;20054;-81
2021/11/19 08:38:01;;;;;;;20.17;10.13;;;;;;;4.33;69.30;99096.75;4980376;28;20034;-82
2021/11/19 08:40:44;;;;;;;19.92;9.82;;;;;;;3.14;68.77;98916.72;4974364;28;20051;-80
2021/11/19 08:43:27;;;;;;;19.88;10.10;;;;;;;3.83;68.92;99038.97;4967346;28;20049;-79
2021/11/19 08:46:00;;;;;;;22.60;10.40;;;;;;;3.58;69.26;98997.63;4976787;28;20114;-79
2021/11/19 08:48:31;;;;;;;24.83;10.70;;;;;;;3.90;69.29;99025.25;4961701;28;20456;-81
2021/11/19 08:51:00;;;;;;;20.50;10.35;;;;;;;3.84;69.94;99012.38;4959000;28;20168;-81
2021/11/19 08:53:29;;;;;;;22.52;9.55;;;;;;;3.21;69.60;98911.63;4970861;28;20030;-81
2021/11/19 08:56:05;;;;;;;24.38;9.77;;;;;;;3.72;68.80;98978.81;4952571;28;20139;-83
2021/11/19 08:58:38;;;;;;;22.58;10.13;;;;;;;3.89;68.94;99012.38;4949639;28;20043;-80
2021/11/19 09:01:06;;;;;;;21.50;9.85;;;;;;;3.67;69.07;98985.66;4982184;28;20122;-83
2021/11/19 09:03:34;;;;;;;21.73;9.90;;;;;;;3.71;69.04;98977.09;4972677;28;20079;-85
2021/11/19 09:06:09;;;;;;;19.98;9.95;;;;;;;4.12;69.07;99030.53;4976887;28;20047;-80
2021/11/19 09:08:40;;;;;;;22.98;9.85;;;;;;;3.88;68.42;98980.63;4967967;28;20042;-82
2021/11/19 09:11:08;;;;;;;18.38;9.75;;;;;;;4.58;68.51;99083.09;4973117;28;20050;-84
2021/11/19 09:13:35;;;;;;;21.48;9.05;;;;;;;4.66;68.97;99087.44;4979288;28;20043;-81
2021/11/19 09:16:05;;;;;;;25.83;9.75;;;;;;;4.36;68.63;99021.19;4982167;28;20018;-78
2021/11/19 09:18:49;;;;;;;19.13;9.52;;;;;;;4.54;68.64;99030.69;4969108;28;20038;-84
2021/11/19 09:21:25;;;;;;;20.73;9.27;;;;;;;4.08;68.50;98959.28;4982165;28;20047;-82
2021/11/19 09:24:17;;;;;;;22.58;9.40;;;;;;;4.01;68.35;98947.22;4952320;28;20131;-82
2021/11/19 09:27:01;;;;;;;21.17;9.38;;;;;;;4.19;68.06;98987.66;4987498;28;20050;-82
2021/11/19 09:29:43;;;;;;;21.40;9.25;;;;;;;4.32;67.84;99012.59;4982799;28;20530;-83
2021/11/19 09:32:23;;;;;;;18.98;8.75;;;;;;;4.20;67.15;99003.09;4989166;28;20158;-82
2021/11/19 09:34:55;;;;;;;19.80;8.95;;;;;;;4.57;67.91;99071.94;4975380;28;20124;-83
2021/11/19 09:37:28;;;;;;;19.50;8.65;;;;;;;3.73;67.96;98903.34;4955248;28;20138;-82
2021/11/19 09:39:59;;;;;;;18.58;8.75;;;;;;;3.96;67.69;98967.81;4988063;28;20110;-85
2021/11/19 09:42:44;;;;;;;19.45;9.27;;;;;;;4.53;67.90;99036.72;4969060;28;20039;-84
2021/11/19 09:45:41;;;;;;;19.88;8.55;;;;;;;4.51;67.40;99048.72;4971707;28;20055;-82
2021/11/19 09:48:50;;;;;;;23.52;9.38;;;;;;;4.40;67.05;99047.84;4957089;28;20089;-85
2021/11/19 09:51:44;;;;;;;20.98;9.25;;;;;;;4.40;67.52;99047.84;4989706;28;20030;-81
2021/11/19 09:54:40;;;;;;;21.23;9.70;;;;;;;4.09;67.94;98981.56;4975246;28;20046;-82
2021/11/19 09:57:24;;;;;;;23.35;9.60;;;;;;;4.41;67.37;99022.06;4958285;28;20047;-82
2021/11/19 10:00:12;;;;;;;20.95;9.48;;;;;;;4.43;67.67;99024.63;4982912;28;20031;-82
2021/11/19 10:03:18;;;;;;;21.48;9.80;;;;;;;4.44;67.74;99026.34;4987654;28;20042;-82
2021/11/19 10:06:02;;;;;;;19.77;8.70;;;;;;;4.49;68.06;99025.53;4984936;28;20069;-82
2021/11/19 10:08:49;;;;;;;17.45;8.88;;;;;;;4.24;67.43;98974.78;4973734;28;20034;-80
2021/11/19 10:11:20;;;;;;;22.02;8.98;;;;;;;4.50;67.52;99009.22;4983336;28;20043;-84
2021/11/19 10:14:25;;;;;;;21.02;9.00;;;;;;;4.43;67.97;99004.91;4942955;28;20106;-82
2021/11/19 10:17:29;;;;;;;21.70;8.98;;;;;;;4.43;67.59;99010.06;4996530;28;20042;-81
2021/11/19 10:19:59;;;;;;;19.05;9.15;;;;;;;4.14;67.53;98953.28;4893251;29;20139;-82
2021/11/19 10:22:58;;;;;;;22.42;10.30;;;;;;;4.36;67.33;98992.84;4881692;29;20051;-83
2021/11/19 10:25:47;;;;;;;20.45;9.93;;;;;;;4.40;68.11;98994.59;4926664;28;20079;-83
2021/11/19 10:28:19;;;;;;;20.75;9.50;;;;;;;3.47;67.95;98845.78;4940914;28;20039;-81
2021/11/19 10:30:52;;;;;;;20.33;9.52;;;;;;;3.43;67.39;98828.59;4943923;28;20146;-83
2021/11/19 10:33:30;;;;;;;21.27;9.30;;;;;;;3.55;67.54;98827.81;4943825;28;20046;-82
2021/11/19 10:36:36;;;;;;;20.75;9.10;;;;;;;4.50;67.56;98982.59;4958105;28;20398;-84
2021/11/19 10:39:23;;;;;;;19.27;9.40;;;;;;;4.49;66.83;98976.59;4955768;28;20038;-83
2021/11/19 10:42:13;;;;;;;20.58;9.40;;;;;;;3.84;67.98;98863.09;4958576;28;20038;-80
2021/11/19 10:45:33;;;;;;;18.08;9.13;;;;;;;3.80;67.67;98858.78;4974977;28;20058;-81
2021/11/19 10:48:02;;;;;;;20.98;8.93;;;;;;;4.47;67.45;98972.28;4905868;29;20079;-85
2021/11/19 10:51:01;;;;;;;20.23;8.77;;;;;;;4.50;67.94;98965.44;4934723;28;20035;-83
2021/11/19 10:53:45;;;;;;;20.38;9.65;;;;;;;4.52;67.76;98963.69;4972207;28;20058;-82
2021/11/19 10:56:37;;;;;;;20.20;9.35;;;;;;;4.52;67.86;98961.09;4972271;28;20398;-82
2021/11/19 10:59:36;;;;;;;17.27;8.65;;;;;;;4.43;66.90;98962.81;4957306;28;20046;-84
2021/11/19 11:02:08;;;;;;;21.67;9.85;;;;;;;4.33;66.67;98954.19;4951031;28;20043;-81
2021/11/19 11:04:37;;;;;;;20.15;9.38;;;;;;;4.21;66.71;98966.19;4969419;28;20054;-81
2021/11/19 11:07:36;;;;;;;19.65;8.70;;;;;;;3.40;67.34;98828.59;4961148;28;20074;-84
2021/11/19 11:10:09;;;;;;;19.80;8.88;;;;;;;4.20;67.85;98964.47;4964602;28;20414;-80
2021/11/19 11:12:51;;;;;;;18.75;9.25;;;;;;;4.15;67.04;98948.13;4971913;28;20047;-82
2021/11/19 11:15:50;;;;;;;20.08;9.10;;;;;;;4.24;67.59;98941.31;4967703;28;20043;-81
2021/11/19 11:18:27;;;;;;;20.23;9.35;;;;;;;4.25;67.42;98932.72;4975359;28;20504;-82
2021/11/19 11:20:52;;;;;;;19.27;9.13;;;;;;;4.31;67.53;98953.31;4956647;28;20137;-80
2021/11/19 11:23:51;;;;;;;17.15;9.73;;;;;;;3.80;67.02;98874.22;4969984;28;20531;-82
2021/11/19 11:26:45;;;;;;;21.88;9.20;;;;;;;4.12;67.32;98916.38;4977711;28;20026;-80
2021/11/19 11:29:14;;;;;;;21.65;8.85;;;;;;;4.39;67.95;98943.91;4946389;28;20042;-82
2021/11/19 11:32:23;;;;;;;18.13;9.20;;;;;;;4.41;67.47;98947.34;4963641;28;20529;-79
2021/11/19 11:35:04;;;;;;;19.67;8.93;;;;;;;3.72;67.39;98834.72;4977737;28;20038;-83
2021/11/19 11:38:09;;;;;;;17.77;7.93;;;;;;;4.44;67.37;98942.22;4968475;28;20038;-81
2021/11/19 11:40:39;;;;;;;20.05;8.93;;;;;;;3.84;67.48;98845.06;4970495;28;20049;-86
2021/11/19 11:43:39;;;;;;;21.35;9.55;;;;;;;4.46;67.45;98955.97;4955788;28;20133;-84
2021/11/19 11:46:54;;;;;;;17.27;8.35;;;;;;;3.64;67.22;98810.69;4921615;29;20055;-86
2021/11/19 11:49:50;;;;;;;17.85;8.38;;;;;;;4.48;66.78;98940.50;4951726;29;20047;-82
2021/11/19 11:52:48;;;;;;;19.42;9.40;;;;;;;3.81;67.47;98829.63;4939408;29;20101;-83
2021/11/19 11:55:23;;;;;;;18.52;8.93;;;;;;;4.53;67.46;98933.63;4950994;29;20140;-83
2021/11/19 11:57:49;;;;;;;19.08;8.85;;;;;;;4.24;66.96;98882.06;4936731;29;20066;-83
2021/11/19 12:00:32;;;;;;;17.48;9.10;;;;;;;3.87;67.80;98824.47;4938865;29;20055;-81
2021/11/19 12:03:28;;;;;;;18.92;8.60;;;;;;;4.62;67.53;98940.53;4955487;29;20085;-80
2021/11/19 12:06:16;;;;;;;18.20;8.52;;;;;;;3.55;66.80;98767.75;4955385;29;20043;-82
2021/11/19 12:09:28;;;;;;;16.13;7.50;;;;;;;3.90;66.92;98836.50;4964835;28;20139;-82
2021/11/19 12:11:54;;;;;;;17.60;8.20;;;;;;;4.48;66.76;98937.91;4949225;28;20054;-84
2021/11/19 12:14:37;;;;;;;17.40;8.45;;;;;;;4.08;66.82;98894.91;4974611;28;20134;-81
2021/11/19 12:17:06;;;;;;;19.95;8.98;;;;;;;4.45;67.45;98941.38;4957154;29;20126;-82